Data for 10/15/2006

Time Sea-Level Adjusted Pressure Absolute Pressure Temperature Relative Humidity Dew Point   
(mb) (inHg) (mb) (inHg) (C) (F) (%) (C) (F)
00:05 1010 29.83 840 24.81 8 46.4 51 -1.4 29.4
00:10 1010 29.83 840 24.81 8.3 47 50 -1.5 29.3
00:15 1010 29.83 840 24.81 8.7 47.7 48 -1.7 29
00:20 1010 29.83 839 24.78 8.3 47 52 -0.9 30.3
00:25 1010 29.83 839 24.78 7.8 46.1 51 -1.7 29
00:30 1010 29.83 839 24.78 8.1 46.5 50 -1.7 28.9
00:35 1010 29.83 839 24.78 8.1 46.5 50 -1.8 28.8
00:40 1010 29.83 839 24.78 8 46.4 53 -1 30.1
00:45 1010 29.83 839 24.78 7.5 45.5 52 -1.6 29.1
00:50 1010 29.83 839 24.78 7.4 45.2 55 -1.1 29.9
00:55 1010 29.83 839 24.78 7.1 44.7 56 -1.1 30.1
01:00 1010 29.83 839 24.78 7 44.6 55 -1.3 29.6
01:05 1010 29.83 839 24.78 6.7 44 57 -1.1 29.9
01:10 1010 29.83 839 24.78 6.6 44 58 -1.1 30
01:15 1010 29.83 839 24.78 6.4 43.4 58 -1.3 29.7
01:20 1010 29.83 839 24.78 6.4 43.5 57 -1.5 29.3
01:25 1010 29.83 839 24.78 6.5 43.7 57 -1.4 29.5
01:30 1010 29.83 839 24.78 6.4 43.6 58 -1.2 29.9
01:35 1010 29.83 839 24.78 6.1 42.9 59 -1.3 29.7
01:40 1010 29.83 839 24.78 6.7 44 55 -1.6 29.1
01:45 1010 29.83 839 24.78 6.9 44.5 55 -1.5 29.3
01:50 1010 29.83 839 24.78 6.8 44.3 56 -1.3 29.7
01:55 1010 29.83 839 24.78 6.5 43.6 58 -1.2 29.8
02:00 1010 29.83 839 24.78 6.2 43.2 58 -1.4 29.5
02:05 1010 29.83 839 24.78 6.1 43 58 -1.4 29.4
02:10 1010 29.83 839 24.78 6.1 43 58 -1.4 29.4
02:15 1010 29.83 839 24.78 6.1 43 59 -1.3 29.6
02:20 1010 29.83 839 24.78 6.1 42.9 59 -1.3 29.7
02:25 1010 29.83 839 24.78 5.7 42.2 61 -1.2 29.8
02:30 1010 29.83 839 24.78 5.5 42 60 -1.6 29.1
02:35 1010 29.83 839 24.78 6 42.8 57 -1.8 28.8
02:40 1010 29.83 839 24.78 6.5 43.7 56 -1.6 29.1
02:45 1010 29.83 839 24.78 7.1 44.7 54 -1.6 29.1
02:50 1010 29.83 839 24.78 7.5 45.4 52 -1.6 29
02:55 1010 29.83 839 24.78 7.8 46.1 52 -1.5 29.3
03:00 1010 29.83 839 24.78 7.6 45.6 54 -1 30.1
03:05 1010 29.83 839 24.78 7.3 45.1 52 -1.9 28.6
03:10 1010 29.83 839 24.78 7.4 45.4 54 -1.3 29.7
03:15 1010 29.83 839 24.78 6.6 43.9 56 -1.4 29.4
03:20 1010 29.83 839 24.78 6.2 43.2 58 -1.4 29.5
03:25 1010 29.83 839 24.78 6.2 43.1 58 -1.5 29.3
03:30 1010 29.83 839 24.78 6.2 43.1 58 -1.6 29.2
03:35 1009 29.8 839 24.78 6.4 43.4 58 -1.3 29.7
03:40 1009 29.8 839 24.78 6 42.8 59 -1.4 29.5
03:45 1009 29.8 838 24.75 6.2 43.1 58 -1.5 29.3
03:50 1009 29.8 838 24.75 6.1 43 58 -1.5 29.4
03:55 1009 29.8 838 24.75 6.2 43.1 58 -1.4 29.4
04:00 1009 29.8 838 24.75 6 42.8 59 -1.3 29.6
04:05 1009 29.8 838 24.75 5.8 42.4 60 -1.4 29.4
04:10 1009 29.8 838 24.75 5.5 42 61 -1.4 29.5
04:15 1009 29.8 838 24.75 5.5 41.9 60 -1.7 29
04:20 1009 29.8 838 24.75 5.8 42.5 58 -1.7 28.9
04:25 1009 29.8 838 24.75 5.8 42.5 60 -1.3 29.7
04:30 1009 29.8 838 24.75 5.6 42 60 -1.5 29.3
04:35 1009 29.8 838 24.75 5.7 42.3 61 -1.3 29.7
04:40 1009 29.8 838 24.75 5.6 42 61 -1.3 29.7
04:45 1009 29.8 838 24.75 5.7 42.2 61 -1.3 29.6
04:50 1009 29.8 838 24.75 5.9 42.6 60 -1.3 29.7
04:55 1009 29.8 838 24.75 5.6 42 62 -1.2 29.9
05:00 1009 29.8 838 24.75 5.4 41.6 62 -1.3 29.7
05:05 1009 29.8 838 24.75 5.4 41.7 62 -1.3 29.7
05:10 1009 29.8 838 24.75 5.4 41.8 61 -1.4 29.5
05:15 1009 29.8 838 24.75 5.9 42.6 58 -1.7 28.9
05:20 1009 29.8 838 24.75 6.5 43.7 56 -1.6 29.1
05:25 1009 29.8 838 24.75 6.7 44.1 55 -1.5 29.2
05:30 1009 29.8 838 24.75 7 44.5 55 -1.5 29.3
05:35 1009 29.8 838 24.75 6.8 44.3 55 -1.5 29.3
05:40 1008 29.77 838 24.75 6.8 44.2 55 -1.5 29.3
05:45 1008 29.77 838 24.75 7 44.6 54 -1.6 29.2
05:50 1008 29.77 838 24.75 7.1 44.8 55 -1.4 29.5
05:55 1008 29.77 838 24.75 6.9 44.5 55 -1.4 29.5
06:00 1008 29.77 838 24.75 7.1 44.7 55 -1.3 29.6
06:05 1008 29.77 838 24.75 7.1 44.7 55 -1.3 29.7
06:10 1008 29.77 837 24.72 6.8 44.2 56 -1.3 29.7
06:15 1008 29.77 837 24.72 6.7 44 56 -1.4 29.4
06:20 1008 29.77 837 24.72 6.9 44.5 55 -1.5 29.3
06:25 1008 29.77 837 24.72 7.5 45.4 53 -1.5 29.3
06:30 1008 29.77 837 24.72 7.3 45.2 54 -1.4 29.5
06:35 1008 29.77 837 24.72 7.7 45.8 51 -1.9 28.6
06:40 1008 29.77 837 24.72 7.8 46.1 51 -1.6 29.2
06:45 1008 29.77 837 24.72 7.4 45.3 53 -1.5 29.3
06:50 1008 29.77 837 24.72 6.8 44.2 58 -0.8 30.5
06:55 1008 29.77 837 24.72 6.5 43.6 57 -1.4 29.5
07:00 1008 29.77 837 24.72 6.6 43.9 55 -1.6 29
07:05 1008 29.77 837 24.72 7.3 45.2 53 -1.7 29
07:10 1008 29.77 837 24.72 7.5 45.6 54 -1.3 29.7
07:15 1008 29.77 837 24.72 7.3 45.2 53 -1.6 29.1
07:20 1008 29.77 837 24.72 7.4 45.2 53 -1.5 29.4
07:25 1007 29.74 837 24.72 7.2 44.9 55 -1.2 29.9
07:30 1007 29.74 837 24.72 6.9 44.4 56 -1.2 29.8
07:35 1007 29.74 836 24.69 6.7 44 57 -1.2 29.8
07:40 1007 29.74 836 24.69 6.5 43.6 59 -1.1 30.1
07:45 1007 29.74 836 24.69 6.4 43.5 58 -1.2 29.8
07:50 1007 29.74 836 24.69 6.6 43.8 57 -1.3 29.7
07:55 1007 29.74 836 24.69 6.4 43.4 59 -1 30.3
08:00 1007 29.74 836 24.69 6.2 43.1 60 -1 30.1
08:05 1007 29.74 836 24.69 6.3 43.3 58 -1.3 29.7
08:10 1007 29.74 836 24.69 6.7 44 57 -1.3 29.6
08:15 1007 29.74 836 24.69 6.9 44.4 56 -1.2 29.8
08:20 1007 29.74 836 24.69 7 44.5 55 -1.4 29.5
08:25 1007 29.74 836 24.69 7.1 44.7 56 -1.1 30
08:30 1007 29.74 836 24.69 7.1 44.8 55 -1.4 29.5
08:35 1007 29.74 836 24.69 7.3 45.2 54 -1.4 29.5
08:40 1007 29.74 836 24.69 7.4 45.4 54 -1.2 29.8
08:45 1007 29.74 836 24.69 7.5 45.5 54 -1.2 29.8
08:50 1007 29.74 836 24.69 7.5 45.6 54 -1.3 29.7
08:55 1007 29.74 836 24.69 7.5 45.6 54 -1.2 29.9
09:00 1007 29.74 836 24.69 7.6 45.7 53 -1.2 29.8
09:05 1007 29.74 836 24.69 7.7 45.8 54 -0.9 30.3
09:10 1007 29.74 836 24.69 7.5 45.4 55 -0.9 30.3
09:15 1007 29.74 836 24.69 7.6 45.6 55 -0.9 30.5
09:20 1007 29.74 836 24.69 7.7 45.9 54 -0.9 30.5
09:25 1007 29.74 836 24.69 7.9 46.3 53 -1.1 30
09:30 1007 29.74 836 24.69 8.1 46.6 53 -0.8 30.6
09:35 1007 29.74 836 24.69 8.1 46.7 55 -0.4 31.3
09:40 1007 29.74 836 24.69 8.4 47.1 53 -0.5 31.1
09:45 1007 29.74 836 24.69 8.7 47.6 52 -0.7 30.7
09:50 1007 29.74 836 24.69 9 48.2 53 -0.1 31.8
09:55 1007 29.74 836 24.69 9.4 48.9 50 -0.6 30.9
10:00 1007 29.74 836 24.69 9.9 49.8 52 0.4 32.7
10:05 1006 29.71 836 24.69 10 50 47 -0.6 30.9
10:10 1006 29.71 835 24.66 9.9 49.7 53 0.7 33.2
10:15 1006 29.71 835 24.66 9.6 49.2 58 1.7 35
10:20 1006 29.71 835 24.66 9.6 49.3 55 1.1 34
10:25 1006 29.71 835 24.66 10 49.9 54 1.1 33.9
10:30 1006 29.71 835 24.66 10.5 50.9 52 1 33.8
10:35 1006 29.71 835 24.66 11.2 52.1 51 1.5 34.7
10:40 1006 29.71 835 24.66 11.4 52.6 48 0.9 33.6
10:45 1006 29.71 835 24.66 11.5 52.7 46 0.5 32.9
10:50 1006 29.71 835 24.66 11.6 52.8 48 0.9 33.6
10:55 1006 29.71 835 24.66 11.7 53 46 0.6 33.1
11:00 1006 29.71 835 24.66 11.8 53.2 44 -0 32
11:05 1006 29.71 835 24.66 12.5 54.6 42 0 32.1
11:10 1006 29.71 835 24.66 13 55.5 39 -0.7 30.7
11:15 1006 29.71 835 24.66 13.2 55.7 38 -0.9 30.3
11:20 1006 29.71 835 24.66 12.7 54.8 40 -0.5 31.1
11:25 1006 29.71 835 24.66 12.4 54.4 42 -0.1 31.9
11:30 1006 29.71 835 24.66 12.2 54 41 -0.4 31.2
11:35 1006 29.71 835 24.66 12.6 54.6 40 -0.6 31
11:40 1006 29.71 835 24.66 13.2 55.7 40 -0.2 31.6
11:45 1006 29.71 835 24.66 13.1 55.5 40 0 32
11:50 1006 29.71 835 24.66 13.2 55.7 39 -0.5 31
11:55 1006 29.71 835 24.66 13.4 56.1 38 -0.5 31.1
12:00 1005 29.68 835 24.66 13.6 56.5 38 -0.5 31.1
12:05 1005 29.68 835 24.66 13.7 56.6 39 0.1 32.1
12:10 1005 29.68 834 24.63 13.7 56.7 38 -0.4 31.3
12:15 1005 29.68 834 24.63 13.9 57.1 37 -0.4 31.3
12:20 1005 29.68 834 24.63 14 57.1 37 -0.3 31.5
12:25 1005 29.68 834 24.63 13.9 57 37 -0.5 31
12:30 1005 29.68 834 24.63 14 57.3 37 -0.3 31.4
12:35 1005 29.68 834 24.63 14.3 57.7 36 -0.6 30.9
12:40 1005 29.68 834 24.63 14.5 58.1 35 -0.8 30.5
12:45 1005 29.68 834 24.63 14.6 58.3 34 -1 30.1
12:50 1005 29.68 834 24.63 14.5 58.2 36 -0.5 31.2
12:55 1005 29.68 834 24.63 14.4 57.8 35 -0.7 30.7
13:00 1005 29.68 834 24.63 14.5 58.1 36 -0.1 31.8
13:05 1005 29.68 834 24.63 14.4 57.9 37 -0.2 31.7
13:10 1004 29.65 834 24.63 14.1 57.3 38 0.1 32.2
13:15 1004 29.65 834 24.63 13.7 56.6 38 -0.2 31.7
13:20 1004 29.65 834 24.63 13.5 56.2 39 0 32
13:25 1004 29.65 834 24.63 13.3 55.9 41 0.2 32.4
13:30 1004 29.65 834 24.63 13.5 56.4 42 0.8 33.5
13:35 1005 29.68 834 24.63 13.7 56.6 43 1.5 34.8
13:40 1005 29.68 834 24.63 13.8 56.8 42 1.3 34.3
13:45 1005 29.68 834 24.63 13.8 56.8 40 0.5 33
13:50 1004 29.65 834 24.63 13.8 56.8 38 -0.3 31.5
13:55 1004 29.65 833 24.6 14.1 57.3 32 -2.5 27.5
14:00 1004 29.65 833 24.6 14.7 58.5 31 -2 28.4
14:05 1004 29.65 833 24.6 14.8 58.6 32 -1.7 28.9
14:10 1004 29.65 833 24.6 14.7 58.4 32 -1.7 29
14:15 1004 29.65 833 24.6 14.6 58.3 32 -1.7 29
14:20 1004 29.65 833 24.6 14.6 58.4 32 -2 28.4
14:25 1004 29.65 833 24.6 14.8 58.7 31 -1.9 28.6
14:30 1004 29.65 833 24.6 15.2 59.4 28 -3.2 26.3
14:35 1004 29.65 833 24.6 15.7 60.2 28 -2.6 27.3
14:40 1004 29.65 833 24.6 15.6 60.1 30 -1.8 28.7
14:45 1004 29.65 833 24.6 15.3 59.6 31 -1.8 28.7
14:50 1004 29.65 833 24.6 15.2 59.4 31 -1.8 28.7
14:55 1004 29.65 833 24.6 15.1 59.3 30 -2.1 28.2
15:00 1004 29.65 833 24.6 15.1 59.2 30 -2.3 27.9
15:05 1004 29.65 833 24.6 15 59 32 -1.5 29.3
15:10 1004 29.65 833 24.6 14.5 58.1 35 -0.8 30.5
15:15 1004 29.65 833 24.6 14.1 57.3 37 -0.4 31.3
15:20 1004 29.65 833 24.6 14 57.2 37 -0.5 31.1
15:25 1004 29.65 833 24.6 14.1 57.3 36 -0.6 30.9
15:30 1004 29.65 833 24.6 14.1 57.3 35 -1 30.3
15:35 1004 29.65 833 24.6 14.1 57.4 35 -1 30.2
15:40 1004 29.65 833 24.6 14.2 57.5 35 -0.9 30.5
15:45 1004 29.65 833 24.6 14.1 57.4 35 -1 30.3
15:50 1004 29.65 833 24.6 14.1 57.3 34 -1.5 29.3
15:55 1004 29.65 833 24.6 14.1 57.4 34 -1.3 29.7
16:00 1004 29.65 833 24.6 14.3 57.7 33 -1.6 29.2
16:05 1004 29.65 833 24.6 14.3 57.7 33 -1.5 29.3
16:10 1004 29.65 833 24.6 14.3 57.7 34 -1.3 29.6
16:15 1004 29.65 833 24.6 14.2 57.6 34 -1.2 29.8
16:20 1004 29.65 833 24.6 14.1 57.3 35 -1 30.2
16:25 1004 29.65 833 24.6 14.1 57.3 35 -1 30.2
16:30 1004 29.65 833 24.6 14.1 57.4 38 0.1 32.2
16:35 1004 29.65 833 24.6 13.9 57.1 36 -0.8 30.5
16:40 1004 29.65 833 24.6 14 57.2 35 -1.1 30.1
16:45 1004 29.65 833 24.6 14 57.3 35 -1 30.2
16:50 1004 29.65 833 24.6 14 57.3 38 -0.2 31.7
16:55 1004 29.65 833 24.6 14 57.1 38 0 32.1
17:00 1004 29.65 833 24.6 13.9 57.1 38 -0 32
17:05 1004 29.65 833 24.6 13.8 56.9 40 0.7 33.2
17:10 1004 29.65 833 24.6 13.6 56.5 42 1.1 33.9
17:15 1004 29.65 833 24.6 13.4 56.2 45 1.7 35
17:20 1004 29.65 833 24.6 13.3 56 45 1.6 34.8
17:25 1004 29.65 833 24.6 13.1 55.5 45 1.5 34.7
17:30 1004 29.65 833 24.6 12.8 55 47 1.9 35.5
17:35 1004 29.65 833 24.6 12.7 54.8 47 1.7 35.1
17:40 1004 29.65 833 24.6 12.7 54.8 48 2 35.7
17:45 1004 29.65 833 24.6 12.5 54.6 50 2.4 36.4
17:50 1004 29.65 833 24.6 12.3 54.2 50 2.3 36.1
17:55 1004 29.65 833 24.6 12.2 53.9 50 2.2 36
18:00 1004 29.65 833 24.6 12.1 53.8 53 2.9 37.3
18:05 1004 29.65 833 24.6 12 53.7 53 2.8 37.1
18:10 1004 29.65 833 24.6 11.9 53.4 54 3 37.4
18:15 1004 29.65 833 24.6 11.9 53.3 52 2.4 36.4
18:20 1004 29.65 833 24.6 11.8 53.2 55 3.2 37.7
18:25 1004 29.65 833 24.6 11.8 53.2 54 2.8 37.1
18:30 1004 29.65 833 24.6 11.6 52.8 56 3.1 37.6
18:35 1004 29.65 833 24.6 11.3 52.3 59 3.6 38.5
18:40 1004 29.65 833 24.6 11.2 52.2 60 3.7 38.7
18:45 1004 29.65 833 24.6 11.3 52.4 59 3.6 38.5
18:50 1004 29.65 833 24.6 11.2 52.1 59 3.4 38.2
18:55 1004 29.65 833 24.6 11 51.9 61 3.8 38.8
19:00 1004 29.65 833 24.6 10.7 51.3 63 4.1 39.4
19:05 1004 29.65 833 24.6 10.4 50.8 66 4.3 39.7
19:10 1003 29.62 833 24.6 10.1 50.2 67 4.2 39.6
19:15 1003 29.62 833 24.6 9.9 49.8 66 4 39.1
19:20 1004 29.65 833 24.6 10.1 50.2 63 3.5 38.4
19:25 1003 29.62 833 24.6 10.6 51 61 3.4 38.1
19:30 1003 29.62 833 24.6 10.6 51 64 4.1 39.3
19:35 1003 29.62 833 24.6 10.4 50.8 64 3.9 38.9
19:40 1004 29.65 833 24.6 10.6 51 65 4.4 39.9
19:45 1004 29.65 833 24.6 10.4 50.8 67 4.6 40.3
19:50 1004 29.65 833 24.6 9.9 49.9 69 4.5 40.2
19:55 1004 29.65 833 24.6 9.5 49.2 72 4.8 40.6
20:00 1004 29.65 833 24.6 9.2 48.6 74 4.9 40.8
20:05 1004 29.65 833 24.6 9.3 48.7 73 4.7 40.4
20:10 1004 29.65 833 24.6 9.1 48.5 78 5.4 41.8
20:15 1003 29.62 833 24.6 8.8 47.8 78 5.1 41.2
20:20 1003 29.62 833 24.6 8.7 47.6 79 5.2 41.3
20:25 1003 29.62 832 24.57 8.5 47.3 79 5.1 41.2
20:30 1003 29.62 833 24.6 8.4 47.2 81 5.3 41.5
20:35 1003 29.62 833 24.6 8.3 47 81 5.2 41.4
20:40 1003 29.62 833 24.6 8.3 46.9 81 5.2 41.3
20:45 1003 29.62 833 24.6 8.3 47 78 4.7 40.5
20:50 1003 29.62 833 24.6 8.7 47.7 80 5.4 41.7
20:55 1003 29.62 833 24.6 9 48.2 79 5.6 42.1
21:00 1003 29.62 833 24.6 9 48.3 80 5.9 42.5
21:05 1004 29.65 833 24.6 9 48.2 80 5.8 42.4
21:10 1003 29.62 833 24.6 8.9 48 81 5.8 42.4
21:15 1003 29.62 833 24.6 8.5 47.3 83 5.8 42.5
21:20 1003 29.62 833 24.6 8.3 46.9 84 5.8 42.4
21:25 1003 29.62 833 24.6 8.1 46.7 84 5.7 42.2
21:30 1003 29.62 833 24.6 8.1 46.6 84 5.6 42.1
21:35 1003 29.62 833 24.6 8.1 46.6 84 5.6 42.2
21:40 1003 29.62 833 24.6 8.1 46.6 85 5.8 42.4
21:45 1003 29.62 833 24.6 8.1 46.6 85 5.7 42.3
21:50 1003 29.62 832 24.57 7.9 46.2 88 6.1 43
21:55 1003 29.62 832 24.57 7.6 45.7 90 6 42.8
22:00 1003 29.62 832 24.57 7.6 45.6 89 5.9 42.7
22:05 1003 29.62 832 24.57 7.6 45.6 90 6 42.8
22:10 1003 29.62 832 24.57 7.5 45.4 90 5.9 42.7
22:15 1003 29.62 832 24.57 7.4 45.3 90 5.8 42.5
22:20 1003 29.62 832 24.57 7.4 45.3 90 5.9 42.6
22:25 1003 29.62 832 24.57 7.3 45.2 91 6 42.7
22:30 1003 29.62 832 24.57 7.4 45.2 91 6 42.8
22:35 1003 29.62 832 24.57 7.5 45.4 89 5.7 42.2
22:40 1003 29.62 832 24.57 7.5 45.6 88 5.6 42.1
22:45 1003 29.62 832 24.57 7.7 45.8 90 6.1 43
22:50 1003 29.62 832 24.57 7.5 45.5 92 6.2 43.2
22:55 1003 29.62 832 24.57 7.3 45.2 93 6.2 43.2
23:00 1003 29.62 832 24.57 7.2 45 93 6.2 43.2
23:05 1003 29.62 832 24.57 7.2 44.9 93 6.2 43.1
23:10 1003 29.62 832 24.57 7.2 44.9 94 6.2 43.1
23:15 1003 29.62 832 24.57 7.1 44.7 94 6.2 43.1
23:20 1003 29.62 832 24.57 6.9 44.5 94 6 42.9
23:25 1003 29.62 832 24.57 6.9 44.4 94 6 42.8
23:30 1002 29.59 832 24.57 6.9 44.4 95 6.1 43
23:35 1002 29.59 832 24.57 6.8 44.3 95 6 42.8
23:40 1002 29.59 831 24.54 6.8 44.2 95 5.9 42.7
23:45 1002 29.59 832 24.57 6.8 44.2 94 5.9 42.7
23:50 1002 29.59 832 24.57 6.8 44.2 94 5.9 42.6
23:55 1002 29.59 832 24.57 6.8 44.2 94 5.9 42.6
24:00 1002 29.59 832 24.57 6.8 44.3 94 5.9 42.6